createdAt,value
2024-02-11T00:01:10.172Z,1.82
2024-02-11T00:03:39.623Z,1.77
2024-02-11T00:06:07.839Z,1.74
2024-02-11T00:08:35.826Z,1.75
2024-02-11T00:11:03.836Z,1.75
2024-02-11T00:13:33.381Z,1.76
2024-02-11T00:16:02.350Z,1.75
2024-02-11T00:18:32.729Z,1.70
2024-02-11T00:21:03.121Z,1.62
2024-02-11T00:23:31.972Z,1.56
2024-02-11T00:26:00.565Z,1.52
2024-02-11T00:28:28.291Z,1.51
2024-02-11T00:30:56.664Z,1.51
2024-02-11T00:33:26.300Z,1.51
2024-02-11T00:35:54.361Z,1.52
2024-02-11T00:38:22.102Z,1.52
2024-02-11T00:40:51.516Z,1.53
2024-02-11T00:43:21.435Z,1.56
2024-02-11T00:45:49.387Z,1.57
2024-02-11T00:48:18.042Z,1.59
2024-02-11T00:50:46.207Z,1.59
2024-02-11T00:53:14.273Z,1.57
2024-02-11T00:55:42.249Z,1.55
2024-02-11T00:58:12.481Z,1.56
2024-02-11T01:00:40.726Z,1.56
2024-02-11T01:03:14.920Z,1.54
2024-02-11T01:05:45.853Z,1.54
2024-02-11T01:08:14.141Z,1.52
2024-02-11T01:10:42.018Z,1.52
2024-02-11T01:13:10.496Z,1.52
2024-02-11T01:15:38.753Z,1.51
2024-02-11T01:18:09.136Z,1.50
2024-02-11T01:20:36.959Z,1.50
2024-02-11T01:23:05.883Z,1.51
2024-02-11T01:25:33.784Z,1.54
2024-02-11T01:28:01.558Z,1.56
2024-02-11T01:30:30.242Z,1.58
2024-02-11T01:32:59.304Z,1.62
2024-02-11T01:35:30.258Z,1.66
2024-02-11T01:37:58.455Z,1.68
2024-02-11T01:40:26.480Z,1.68
2024-02-11T01:42:57.504Z,1.69
2024-02-11T01:45:26.776Z,1.71
2024-02-11T01:47:55.925Z,1.71
2024-02-11T01:50:28.539Z,1.74
2024-02-11T01:52:57.621Z,1.75
2024-02-11T01:55:26.388Z,1.75
2024-02-11T01:57:57.595Z,1.74
2024-02-11T02:00:25.445Z,1.73
2024-02-11T02:02:53.713Z,1.71
2024-02-11T02:05:21.585Z,1.72
2024-02-11T02:07:54.809Z,1.71
2024-02-11T02:10:23.365Z,1.71
2024-02-11T02:12:51.387Z,1.71
2024-02-11T02:15:19.820Z,1.71
2024-02-11T02:17:48.694Z,1.70
2024-02-11T02:20:18.093Z,1.69
2024-02-11T02:22:51.351Z,1.69
2024-02-11T02:25:20.766Z,1.69
2024-02-11T02:27:48.716Z,1.67
2024-02-11T02:30:16.939Z,1.66
2024-02-11T02:32:45.743Z,1.66
2024-02-11T02:35:23.574Z,1.69
2024-02-11T02:37:52.637Z,1.74
2024-02-11T02:40:26.044Z,1.78
2024-02-11T02:42:58.918Z,1.85
2024-02-11T02:45:28.354Z,1.90
2024-02-11T02:47:57.140Z,1.95
2024-02-11T02:50:26.003Z,1.99
2024-02-11T02:52:54.212Z,2.01
2024-02-11T02:55:22.132Z,2.05
2024-02-11T02:57:52.839Z,2.10
2024-02-11T03:00:21.601Z,2.14
2024-02-11T03:02:54.468Z,2.21
2024-02-11T03:05:24.467Z,2.28
2024-02-11T03:07:53.945Z,2.37
2024-02-11T03:10:22.737Z,2.45
2024-02-11T03:12:51.423Z,2.53
2024-02-11T03:15:19.359Z,2.58
2024-02-11T03:17:49.513Z,2.63
2024-02-11T03:20:17.421Z,2.66
2024-02-11T03:22:45.461Z,2.72
2024-02-11T03:25:15.808Z,2.77
2024-02-11T03:27:44.465Z,2.81
2024-02-11T03:30:14.164Z,2.83
2024-02-11T03:32:43.128Z,2.83
2024-02-11T03:35:12.722Z,2.82
2024-02-11T03:37:41.766Z,2.80
2024-02-11T03:40:13.339Z,2.74
2024-02-11T03:42:41.539Z,2.69
2024-02-11T03:45:19.112Z,2.66
2024-02-11T03:47:49.595Z,2.63
2024-02-11T03:50:17.793Z,2.58
2024-02-11T03:52:45.634Z,2.51
2024-02-11T03:55:14.342Z,2.46
2024-02-11T03:57:42.226Z,2.44
2024-02-11T04:00:26.293Z,2.46
2024-02-11T04:02:54.448Z,2.50
2024-02-11T04:05:26.588Z,2.52
2024-02-11T04:07:55.545Z,2.51
2024-02-11T04:10:25.141Z,2.47
2024-02-11T04:12:54.389Z,2.45
2024-02-11T04:15:25.484Z,2.45
2024-02-11T04:17:55.445Z,2.47
2024-02-11T04:20:28.820Z,2.53
2024-02-11T04:22:59.254Z,2.59
2024-02-11T04:25:30.821Z,2.61
2024-02-11T04:27:59.902Z,2.63
2024-02-11T04:30:31.719Z,2.66
2024-02-11T04:33:04.135Z,2.71
2024-02-11T04:35:32.564Z,2.76
2024-02-11T04:38:01.202Z,2.87
2024-02-11T04:40:31.344Z,3.08
2024-02-11T04:43:00.139Z,3.27
2024-02-11T04:45:28.045Z,3.41
2024-02-11T04:48:01.455Z,3.50
2024-02-11T04:50:30.103Z,3.61
2024-02-11T04:52:59.926Z,3.69
2024-02-11T04:55:29.279Z,3.77
2024-02-11T04:58:00.175Z,3.85
2024-02-11T05:00:31.393Z,3.93
2024-02-11T05:03:00.053Z,4.02
2024-02-11T05:05:31.921Z,4.07
2024-02-11T05:08:04.925Z,4.11
2024-02-11T05:10:35.876Z,4.16
2024-02-11T05:13:08.159Z,4.19
2024-02-11T05:15:38.252Z,4.23
2024-02-11T05:18:06.298Z,4.26
2024-02-11T05:20:34.131Z,4.28
2024-02-11T05:23:02.225Z,4.29
2024-02-11T05:25:32.181Z,4.31
2024-02-11T05:28:04.268Z,4.34
2024-02-11T05:30:34.501Z,4.36
2024-02-11T05:33:03.569Z,4.38
2024-02-11T05:35:38.543Z,4.40
2024-02-11T05:38:10.205Z,4.41
2024-02-11T05:40:42.864Z,4.44
2024-02-11T05:43:13.836Z,4.47
2024-02-11T05:45:42.477Z,4.49
2024-02-11T05:48:12.858Z,4.51
2024-02-11T05:50:41.737Z,4.53
2024-02-11T05:53:10.318Z,4.55
2024-02-11T05:55:39.885Z,4.55
2024-02-11T05:58:08.007Z,4.58
2024-02-11T06:00:38.491Z,4.61
2024-02-11T06:03:07.336Z,4.64
2024-02-11T06:05:35.356Z,4.67
2024-02-11T06:08:04.044Z,4.68
2024-02-11T06:10:35.690Z,4.70
2024-02-11T06:13:05.233Z,4.73
2024-02-11T06:15:36.918Z,4.75
2024-02-11T06:18:08.467Z,4.77
2024-02-11T06:20:37.357Z,4.77
2024-02-11T06:23:09.375Z,4.78
2024-02-11T06:25:38.591Z,4.80
2024-02-11T06:28:06.962Z,4.84
2024-02-11T06:30:35.786Z,4.86
2024-02-11T06:33:04.017Z,4.87
2024-02-11T06:35:32.928Z,4.89
2024-02-11T06:38:01.346Z,4.90
2024-02-11T06:40:31.593Z,4.93
2024-02-11T06:43:01.416Z,4.97
2024-02-11T06:45:30.701Z,5.00
2024-02-11T06:48:00.402Z,5.04
2024-02-11T06:50:29.170Z,5.07
2024-02-11T06:52:57.956Z,5.08
2024-02-11T06:55:27.104Z,5.09
2024-02-11T06:57:54.989Z,5.09
2024-02-11T07:00:25.782Z,5.11
2024-02-11T07:03:02.392Z,5.11
2024-02-11T07:05:32.521Z,5.14
2024-02-11T07:08:01.263Z,5.17
2024-02-11T07:10:29.651Z,5.18
2024-02-11T07:12:59.137Z,5.18
2024-02-11T07:15:27.013Z,5.20
2024-02-11T07:17:55.557Z,5.23
2024-02-11T07:20:24.059Z,5.28
2024-02-11T07:22:53.097Z,5.31
2024-02-11T07:25:21.875Z,5.34
2024-02-11T07:27:49.832Z,5.37
2024-02-11T07:30:17.715Z,5.40
2024-02-11T07:32:47.025Z,5.42
2024-02-11T07:35:17.611Z,5.44
2024-02-11T07:37:46.999Z,5.46
2024-02-11T07:40:18.056Z,5.48
2024-02-11T07:42:47.629Z,5.50
2024-02-11T07:45:17.215Z,5.52
2024-02-11T07:47:50.349Z,5.56
2024-02-11T07:50:19.410Z,5.57
2024-02-11T07:52:49.433Z,5.60
2024-02-11T07:55:18.010Z,5.62
2024-02-11T07:57:50.750Z,5.66
2024-02-11T08:00:21.790Z,5.68
2024-02-11T08:02:52.891Z,5.71
2024-02-11T08:05:23.892Z,5.75
2024-02-11T08:07:54.101Z,5.78
2024-02-11T08:10:25.268Z,5.83
2024-02-11T08:12:54.093Z,5.86
2024-02-11T08:15:22.220Z,5.89
2024-02-11T08:17:50.405Z,5.91
2024-02-11T08:20:21.358Z,5.93
2024-02-11T08:22:51.362Z,5.94
2024-02-11T08:25:22.552Z,5.97
2024-02-11T08:27:50.293Z,5.99
2024-02-11T08:30:25.326Z,6.01
2024-02-11T08:32:54.578Z,6.03
2024-02-11T08:35:23.136Z,6.04
2024-02-11T08:37:51.240Z,6.07
2024-02-11T08:40:21.166Z,6.10
2024-02-11T08:42:49.239Z,6.13
2024-02-11T08:45:19.601Z,6.14
2024-02-11T08:47:48.341Z,6.17
2024-02-11T08:50:16.673Z,6.18
2024-02-11T08:52:46.024Z,6.20
2024-02-11T08:55:15.431Z,6.23
2024-02-11T08:57:43.358Z,6.24
2024-02-11T09:00:16.044Z,6.26
2024-02-11T09:02:43.967Z,6.29
2024-02-11T09:05:12.380Z,6.31
2024-02-11T09:07:44.260Z,6.34
2024-02-11T09:10:15.554Z,6.36
2024-02-11T09:12:43.558Z,6.39
2024-02-11T09:15:13.806Z,6.42
2024-02-11T09:17:45.331Z,6.45
2024-02-11T09:20:17.451Z,6.46
2024-02-11T09:22:46.327Z,6.49
2024-02-11T09:25:16.056Z,6.50
2024-02-11T09:27:45.356Z,6.52
2024-02-11T09:30:17.719Z,6.54
2024-02-11T09:32:48.711Z,6.56
2024-02-11T09:35:23.807Z,6.60
2024-02-11T09:37:53.722Z,6.62
2024-02-11T09:40:21.900Z,6.64
2024-02-11T09:42:51.182Z,6.67
2024-02-11T09:45:19.807Z,6.69
2024-02-11T09:47:50.786Z,6.72
2024-02-11T09:50:19.946Z,6.74
2024-02-11T09:52:49.251Z,6.75
2024-02-11T09:55:19.262Z,6.78
2024-02-11T09:57:48.238Z,6.82
2024-02-11T10:00:17.404Z,6.86
2024-02-11T10:02:46.233Z,6.91
2024-02-11T10:05:14.719Z,6.96
2024-02-11T10:07:46.435Z,7.02
2024-02-11T10:10:17.159Z,7.09
2024-02-11T10:12:46.524Z,7.15
2024-02-11T10:15:18.636Z,7.21
2024-02-11T10:17:49.143Z,7.25
2024-02-11T10:20:19.254Z,7.30
2024-02-11T10:22:47.670Z,7.37
2024-02-11T10:25:17.955Z,7.44
2024-02-11T10:27:47.062Z,7.50
2024-02-11T10:30:15.235Z,7.56
2024-02-11T10:32:43.588Z,7.62
2024-02-11T10:35:13.303Z,7.68
2024-02-11T10:37:52.522Z,7.72
2024-02-11T10:40:24.716Z,7.73
2024-02-11T10:42:52.656Z,7.75
2024-02-11T10:45:20.933Z,7.77
2024-02-11T10:47:49.517Z,7.74
2024-02-11T10:50:19.233Z,7.71
2024-02-11T10:52:48.737Z,7.69
2024-02-11T10:55:17.504Z,7.68
2024-02-11T10:57:52.173Z,7.69
2024-02-11T11:00:21.940Z,7.68
2024-02-11T11:02:51.164Z,7.68
2024-02-11T11:05:21.704Z,7.70
2024-02-11T11:07:50.725Z,7.72
2024-02-11T11:10:20.166Z,7.75
2024-02-11T11:12:51.666Z,7.77
2024-02-11T11:15:27.800Z,7.79
2024-02-11T11:17:56.827Z,7.83
2024-02-11T11:20:25.455Z,7.89
2024-02-11T11:22:57.470Z,7.95
2024-02-11T11:25:25.815Z,8.01
2024-02-11T11:27:54.031Z,8.07
2024-02-11T11:30:25.140Z,8.13
2024-02-11T11:32:53.445Z,8.18
2024-02-11T11:35:24.157Z,8.21
2024-02-11T11:37:52.285Z,8.22
2024-02-11T11:40:24.382Z,8.22
2024-02-11T11:42:52.426Z,8.22
2024-02-11T11:45:21.938Z,8.22
2024-02-11T11:47:52.520Z,8.20
2024-02-11T11:50:21.083Z,8.22
2024-02-11T11:52:59.376Z,8.23
2024-02-11T11:55:27.106Z,8.21
2024-02-11T11:58:00.062Z,8.19
2024-02-11T12:00:29.870Z,8.16
2024-02-11T12:03:02.100Z,8.13
2024-02-11T12:05:34.258Z,8.11
2024-02-11T12:08:05.304Z,8.10
2024-02-11T12:10:35.849Z,8.09
2024-02-11T12:13:04.408Z,8.08
2024-02-11T12:15:32.792Z,8.06
2024-02-11T12:18:01.209Z,8.05
2024-02-11T12:20:32.181Z,8.04
2024-02-11T12:23:01.552Z,8.04
2024-02-11T12:25:31.821Z,8.03
2024-02-11T12:28:04.270Z,8.04
2024-02-11T12:30:33.271Z,8.05
2024-02-11T12:33:03.722Z,8.06
2024-02-11T12:35:36.406Z,8.09
2024-02-11T12:38:05.545Z,8.10
2024-02-11T12:40:35.947Z,8.13
2024-02-11T12:43:04.925Z,8.16
2024-02-11T12:45:33.577Z,8.19
2024-02-11T12:48:01.480Z,8.21
2024-02-11T12:50:29.569Z,8.23
2024-02-11T12:52:57.998Z,8.25
2024-02-11T12:55:26.339Z,8.26
2024-02-11T12:57:54.433Z,8.29
2024-02-11T13:00:23.160Z,8.33
2024-02-11T13:02:52.810Z,8.36
2024-02-11T13:05:23.879Z,8.38
2024-02-11T13:07:53.990Z,8.40
2024-02-11T13:10:22.043Z,8.41
2024-02-11T13:12:51.016Z,8.44
2024-02-11T13:15:19.027Z,8.45
2024-02-11T13:17:47.115Z,8.47
2024-02-11T13:20:15.828Z,8.48
2024-02-11T13:22:48.614Z,8.49
2024-02-11T13:25:18.200Z,8.52
2024-02-11T13:27:46.365Z,8.52
2024-02-11T13:30:15.814Z,8.53
2024-02-11T13:32:44.257Z,8.53
2024-02-11T13:35:13.339Z,8.53
2024-02-11T13:37:43.685Z,8.54
2024-02-11T13:40:13.489Z,8.53
2024-02-11T13:42:41.852Z,8.52
2024-02-11T13:45:15.126Z,8.50
2024-02-11T13:47:45.958Z,8.47
2024-02-11T13:50:40.898Z,8.45
2024-02-11T13:53:09.758Z,8.44
2024-02-11T13:55:38.656Z,8.44
2024-02-11T13:58:07.530Z,8.42
2024-02-11T14:00:35.810Z,8.40
2024-02-11T14:03:06.075Z,8.39
2024-02-11T14:05:34.973Z,8.38
2024-02-11T14:08:06.548Z,8.38
2024-02-11T14:10:34.829Z,8.38
2024-02-11T14:13:05.018Z,8.38
2024-02-11T14:15:35.307Z,8.39
2024-02-11T14:18:05.512Z,8.39
2024-02-11T14:20:37.595Z,8.38
2024-02-11T14:23:05.837Z,8.37
2024-02-11T14:25:34.631Z,8.36
2024-02-11T14:28:07.741Z,8.36
2024-02-11T14:30:39.067Z,8.35
2024-02-11T14:33:08.899Z,8.33
2024-02-11T14:35:39.858Z,8.33
2024-02-11T14:38:08.822Z,8.31
2024-02-11T14:40:37.638Z,8.32
2024-02-11T14:43:06.448Z,8.34
2024-02-11T14:45:35.685Z,8.35
2024-02-11T14:48:04.641Z,8.36
2024-02-11T14:50:33.594Z,8.39
2024-02-11T14:53:02.820Z,8.40
2024-02-11T14:55:30.815Z,8.39
2024-02-11T14:57:59.864Z,8.39
2024-02-11T15:00:30.697Z,8.39
2024-02-11T15:02:58.795Z,8.40
2024-02-11T15:05:26.918Z,8.40
2024-02-11T15:07:57.203Z,8.40
2024-02-11T15:10:25.025Z,8.41
2024-02-11T15:12:52.945Z,8.42
2024-02-11T15:15:21.867Z,8.42
2024-02-11T15:17:50.364Z,8.44
2024-02-11T15:20:20.887Z,8.44
2024-02-11T15:22:49.071Z,8.44
2024-02-11T15:25:17.728Z,8.44
2024-02-11T15:27:45.926Z,8.44
2024-02-11T15:30:15.751Z,8.43
2024-02-11T15:32:45.882Z,8.43
2024-02-11T15:35:15.357Z,8.44
2024-02-11T15:37:45.528Z,8.44
2024-02-11T15:40:15.204Z,8.43
2024-02-11T15:42:43.892Z,8.41
2024-02-11T15:45:12.886Z,8.40
2024-02-11T15:47:41.893Z,8.41
2024-02-11T15:50:10.516Z,8.40
2024-02-11T15:52:40.862Z,8.40
2024-02-11T15:55:11.722Z,8.40
2024-02-11T15:57:41.524Z,8.39
2024-02-11T16:00:11.974Z,8.38
2024-02-11T16:02:40.881Z,8.38
2024-02-11T16:05:11.908Z,8.37
2024-02-11T16:07:39.976Z,8.36
2024-02-11T16:10:12.038Z,8.36
2024-02-11T16:12:41.868Z,8.36
2024-02-11T16:15:09.979Z,8.36
2024-02-11T16:17:39.047Z,8.36
2024-02-11T16:20:08.322Z,8.35
2024-02-11T16:22:36.429Z,8.35
2024-02-11T16:25:07.377Z,8.34
2024-02-11T16:27:35.433Z,8.34
2024-02-11T16:30:06.699Z,8.34
2024-02-11T16:32:34.852Z,8.34
2024-02-11T16:35:06.582Z,8.35
2024-02-11T16:37:36.921Z,8.36
2024-02-11T16:40:05.826Z,8.37
2024-02-11T16:42:33.921Z,8.38
2024-02-11T16:45:02.169Z,8.39
2024-02-11T16:47:30.941Z,8.40
2024-02-11T16:49:59.088Z,8.40
2024-02-11T16:52:28.490Z,8.39
2024-02-11T16:54:56.999Z,8.39
2024-02-11T16:57:24.964Z,8.38
2024-02-11T16:59:53.083Z,8.38
2024-02-11T17:02:21.184Z,8.37
2024-02-11T17:04:51.462Z,8.36
2024-02-11T17:07:20.215Z,8.36
2024-02-11T17:09:51.255Z,8.36
2024-02-11T17:12:22.066Z,8.35
2024-02-11T17:14:49.986Z,8.33
2024-02-11T17:17:18.256Z,8.33
2024-02-11T17:19:47.092Z,8.35
2024-02-11T17:22:17.938Z,8.34
2024-02-11T17:24:46.962Z,8.33
2024-02-11T17:27:15.193Z,8.32
2024-02-11T17:29:44.839Z,8.30
2024-02-11T17:32:25.461Z,8.30
2024-02-11T17:34:57.940Z,8.29
2024-02-11T17:37:26.581Z,8.29
2024-02-11T17:39:55.652Z,8.28
2024-02-11T17:42:23.791Z,8.27
2024-02-11T17:44:52.320Z,8.27
2024-02-11T17:47:20.802Z,8.28
2024-02-11T17:49:49.508Z,8.28
2024-02-11T17:52:20.944Z,8.29
2024-02-11T17:54:49.662Z,8.29
2024-02-11T17:57:18.132Z,8.28
2024-02-11T17:59:46.180Z,8.26
2024-02-11T18:02:16.589Z,8.26
2024-02-11T18:04:45.261Z,8.24
2024-02-11T18:07:14.618Z,8.23
2024-02-11T18:09:42.717Z,8.21
2024-02-11T18:12:12.298Z,8.21
2024-02-11T18:14:41.476Z,8.20
2024-02-11T18:17:10.350Z,8.19
2024-02-11T18:19:42.097Z,8.19
2024-02-11T18:22:09.975Z,8.18
2024-02-11T18:24:37.961Z,8.18
2024-02-11T18:27:07.682Z,8.16
2024-02-11T18:29:36.045Z,8.13
2024-02-11T18:32:05.097Z,8.11
2024-02-11T18:34:33.007Z,8.10
2024-02-11T18:37:01.719Z,8.08
2024-02-11T18:39:30.211Z,8.08
2024-02-11T18:41:58.005Z,8.08
2024-02-11T18:44:27.823Z,8.07
2024-02-11T18:46:56.716Z,8.07
2024-02-11T18:49:27.474Z,8.06
2024-02-11T18:51:55.954Z,8.05
2024-02-11T18:54:25.344Z,8.04
2024-02-11T18:56:53.282Z,8.02
2024-02-11T18:59:21.179Z,7.99
2024-02-11T19:01:50.099Z,8.00
2024-02-11T19:04:21.386Z,7.97
2024-02-11T19:06:51.631Z,7.94
2024-02-11T19:09:19.936Z,7.87
2024-02-11T19:11:47.885Z,7.86
2024-02-11T19:14:15.881Z,7.88
2024-02-11T19:16:45.942Z,7.87
2024-02-11T19:19:14.464Z,7.85
2024-02-11T19:21:45.831Z,7.83
2024-02-11T19:24:13.805Z,7.81
2024-02-11T19:26:42.798Z,7.77
2024-02-11T19:29:11.637Z,7.77
2024-02-11T19:31:39.640Z,7.75
2024-02-11T19:34:07.565Z,7.73
2024-02-11T19:36:36.303Z,7.71
2024-02-11T19:39:10.659Z,7.70
2024-02-11T19:41:39.494Z,7.69
2024-02-11T19:44:07.517Z,7.69
2024-02-11T19:46:35.508Z,7.69
2024-02-11T19:49:03.622Z,7.67
2024-02-11T19:51:32.498Z,7.65
2024-02-11T19:54:01.589Z,7.64
2024-02-11T19:56:30.242Z,7.64
2024-02-11T19:59:01.104Z,7.64
2024-02-11T20:01:31.443Z,7.63
2024-02-11T20:03:59.556Z,7.62
2024-02-11T20:06:27.710Z,7.62
2024-02-11T20:08:55.563Z,7.60
2024-02-11T20:11:28.663Z,7.60
2024-02-11T20:13:57.707Z,7.58
2024-02-11T20:16:26.178Z,7.55
2024-02-11T20:18:55.598Z,7.54
2024-02-11T20:21:24.269Z,7.53
2024-02-11T20:23:52.393Z,7.53
2024-02-11T20:26:21.893Z,7.56
2024-02-11T20:28:52.249Z,7.56
2024-02-11T20:31:23.782Z,7.57
2024-02-11T20:33:52.027Z,7.57
2024-02-11T20:36:20.100Z,7.58
2024-02-11T20:38:49.459Z,7.57
2024-02-11T20:41:18.212Z,7.54
2024-02-11T20:43:47.228Z,7.53
2024-02-11T20:46:15.341Z,7.53
2024-02-11T20:48:43.561Z,7.51
2024-02-11T20:51:17.028Z,7.52
2024-02-11T20:53:45.522Z,7.53
2024-02-11T20:56:15.384Z,7.52
2024-02-11T20:58:43.442Z,7.53
2024-02-11T21:01:12.516Z,7.54
2024-02-11T21:03:41.541Z,7.55
2024-02-11T21:06:10.761Z,7.53
2024-02-11T21:08:39.398Z,7.51
2024-02-11T21:11:08.181Z,7.50
2024-02-11T21:13:40.900Z,7.48
2024-02-11T21:16:11.429Z,7.48
2024-02-11T21:18:39.734Z,7.45
2024-02-11T21:21:11.505Z,7.44
2024-02-11T21:23:41.927Z,7.42
2024-02-11T21:26:14.784Z,7.41
2024-02-11T21:28:49.103Z,7.39
2024-02-11T21:31:23.222Z,7.38
2024-02-11T21:33:51.869Z,7.38
2024-02-11T21:36:20.202Z,7.38
2024-02-11T21:38:49.004Z,7.38
2024-02-11T21:41:19.179Z,7.36
2024-02-11T21:43:48.673Z,7.37
2024-02-11T21:46:18.062Z,7.36
2024-02-11T21:48:46.994Z,7.36
2024-02-11T21:51:15.009Z,7.37
2024-02-11T21:53:44.038Z,7.38
2024-02-11T21:56:11.914Z,7.38
2024-02-11T21:58:39.708Z,7.39
2024-02-11T22:01:08.506Z,7.41
2024-02-11T22:03:36.441Z,7.42
2024-02-11T22:06:06.580Z,7.42
2024-02-11T22:08:34.656Z,7.42
2024-02-11T22:11:03.469Z,7.43
2024-02-11T22:13:31.350Z,7.44
2024-02-11T22:16:01.922Z,7.46
2024-02-11T22:18:30.631Z,7.46
2024-02-11T22:20:58.563Z,7.47
2024-02-11T22:23:26.628Z,7.47
2024-02-11T22:25:54.461Z,7.49
2024-02-11T22:28:22.789Z,7.50
2024-02-11T22:30:52.899Z,7.50
2024-02-11T22:33:21.840Z,7.50
2024-02-11T22:35:52.521Z,7.49
2024-02-11T22:38:20.394Z,7.48
2024-02-11T22:40:48.991Z,7.47
2024-02-11T22:43:17.765Z,7.47
2024-02-11T22:45:45.626Z,7.48
2024-02-11T22:48:13.975Z,7.49
2024-02-11T22:50:42.562Z,7.49
2024-02-11T22:53:11.372Z,7.48
2024-02-11T22:55:39.688Z,7.47
2024-02-11T22:58:08.952Z,7.48
2024-02-11T23:00:36.824Z,7.47
2024-02-11T23:03:06.955Z,7.47
2024-02-11T23:05:37.964Z,7.47
2024-02-11T23:08:06.529Z,7.46
2024-02-11T23:10:34.609Z,7.47
2024-02-11T23:13:02.408Z,7.48
2024-02-11T23:15:30.714Z,7.48
2024-02-11T23:18:00.202Z,7.46
2024-02-11T23:20:28.953Z,7.46
2024-02-11T23:22:59.943Z,7.45
2024-02-11T23:25:29.073Z,7.44
2024-02-11T23:27:56.921Z,7.44
2024-02-11T23:30:26.133Z,7.43
2024-02-11T23:32:54.469Z,7.43
2024-02-11T23:35:22.494Z,7.42
2024-02-11T23:37:52.568Z,7.42
2024-02-11T23:40:22.810Z,7.41
2024-02-11T23:42:54.789Z,7.39
2024-02-11T23:45:23.694Z,7.38
2024-02-11T23:47:53.703Z,7.38
2024-02-11T23:50:24.061Z,7.37
2024-02-11T23:52:53.152Z,7.36
2024-02-11T23:55:22.048Z,7.37
2024-02-11T23:57:50.083Z,7.37
